Time;durP1;ratioP1;P1;durP2;ratioP2;P2;SDS_P1;SDS_P2;PMS_P1;PMS_P2;Temp;Humidity;BMP_temperature;BMP_pressure;BME280_temperature;BME280_humidity;BME280_pressure;Samples;Min_cycle;Max_cycle;Signal;HPM_P1;HPM_P2
2022/11/01 00:00:24;;;;;;;18.33;8.20;;;;;;;15.77;66.67;100187.16;5031711;28;20574;-68
2022/11/01 00:02:51;;;;;;;10.53;8.30;;;;;;;15.67;67.79;100181.47;5032135;28;20197;-68
2022/11/01 00:05:18;;;;;;;16.57;8.33;;;;;;;15.38;68.51;100160.56;5032048;28;20255;-67
2022/11/01 00:07:44;;;;;;;15.60;8.93;;;;;;;15.37;69.06;100172.28;5032128;28;20197;-69
2022/11/01 00:10:11;;;;;;;12.83;8.57;;;;;;;15.41;69.12;100178.84;5031609;28;20193;-67
2022/11/01 00:12:38;;;;;;;11.43;8.33;;;;;;;15.38;69.32;100168.59;5049669;28;20336;-68
2022/11/01 00:15:06;;;;;;;18.87;9.33;;;;;;;15.34;69.02;100167.34;5071889;28;20261;-67
2022/11/01 00:17:33;;;;;;;26.90;8.77;;;;;;;15.24;69.61;100168.78;5051698;28;20189;-68
2022/11/01 00:20:00;;;;;;;14.10;8.77;;;;;;;15.22;69.88;100173.50;5051787;28;20192;-68
2022/11/01 00:22:26;;;;;;;14.67;7.87;;;;;;;15.24;69.89;100174.94;5051317;28;20250;-67
2022/11/01 00:24:53;;;;;;;12.93;8.23;;;;;;;15.26;69.93;100175.56;5051411;28;20661;-67
2022/11/01 00:27:20;;;;;;;16.17;8.70;;;;;;;15.17;70.04;100179.50;5051381;28;20670;-67
2022/11/01 00:29:46;;;;;;;17.20;9.40;;;;;;;15.12;70.03;100173.94;5054265;28;20635;-67
2022/11/01 00:32:15;;;;;;;14.07;8.60;;;;;;;15.06;70.04;100173.94;5056669;28;20626;-67
2022/11/01 00:34:41;;;;;;;18.23;8.47;;;;;;;15.06;70.56;100180.13;5075334;28;20192;-67
2022/11/01 00:37:08;;;;;;;12.27;8.40;;;;;;;15.01;70.17;100177.28;5075081;28;20616;-67
2022/11/01 00:39:35;;;;;;;15.63;7.67;;;;;;;14.97;70.17;100176.03;5075474;28;20224;-67
2022/11/01 00:42:01;;;;;;;13.67;8.10;;;;;;;14.88;70.47;100176.44;5075123;28;20260;-68
2022/11/01 00:44:28;;;;;;;15.57;8.07;;;;;;;14.81;70.23;100170.28;5074810;28;20242;-68
2022/11/01 00:46:55;;;;;;;12.80;8.43;;;;;;;14.76;70.54;100164.72;5074977;28;20249;-67
2022/11/01 00:49:23;;;;;;;13.33;7.37;;;;;;;14.69;70.15;100171.91;5075480;28;20199;-68
2022/11/01 00:51:51;;;;;;;15.73;8.80;;;;;;;14.66;70.68;100173.16;5075204;28;20192;-68
2022/11/01 00:54:17;;;;;;;13.87;7.97;;;;;;;14.54;70.79;100169.44;5074970;28;20196;-67
2022/11/01 00:56:44;;;;;;;14.43;8.50;;;;;;;14.58;70.71;100168.00;5075430;28;20200;-68
2022/11/01 00:59:11;;;;;;;17.37;8.83;;;;;;;14.62;70.41;100169.25;5075151;28;20220;-68
2022/11/01 01:01:37;;;;;;;11.87;7.80;;;;;;;14.63;70.88;100167.41;5074389;28;20253;-68
2022/11/01 01:04:04;;;;;;;10.23;7.57;;;;;;;14.66;70.52;100167.81;5074617;28;20192;-68
2022/11/01 01:06:32;;;;;;;12.87;7.27;;;;;;;14.70;69.88;100171.72;5074760;28;20196;-68
2022/11/01 01:09:00;;;;;;;13.23;8.37;;;;;;;14.69;70.10;100164.72;5074726;28;20191;-68
2022/11/01 01:11:27;;;;;;;12.93;7.87;;;;;;;14.71;69.84;100168.00;5074412;28;20635;-68
2022/11/01 01:13:54;;;;;;;10.17;8.13;;;;;;;14.73;69.98;100160.63;5060952;28;20200;-68
2022/11/01 01:16:20;;;;;;;11.33;8.37;;;;;;;14.76;69.85;100170.91;5064820;28;20246;-68
2022/11/01 01:18:47;;;;;;;13.13;8.17;;;;;;;14.75;69.97;100169.25;5074108;28;20277;-68
2022/11/01 01:21:14;;;;;;;12.07;7.53;;;;;;;14.76;70.52;100168.25;5074797;28;20249;-68
2022/11/01 01:23:43;;;;;;;8.53;6.97;;;;;;;14.78;70.28;100176.88;5074465;28;20196;-68
2022/11/01 01:26:10;;;;;;;9.40;7.87;;;;;;;14.77;70.23;100164.53;5074459;28;20192;-67
2022/11/01 01:28:38;;;;;;;13.70;7.77;;;;;;;14.79;70.09;100167.81;5071566;28;20204;-67
2022/11/01 01:31:06;;;;;;;18.77;8.23;;;;;;;14.78;70.30;100160.81;5055141;28;20585;-68
2022/11/01 01:33:33;;;;;;;9.57;7.00;;;;;;;14.80;70.44;100169.47;5053942;28;20256;-68
2022/11/01 01:36:00;;;;;;;9.97;7.57;;;;;;;14.80;69.99;100169.47;5054500;28;20625;-68
2022/11/01 01:38:27;;;;;;;8.47;7.27;;;;;;;14.79;69.94;100162.44;5053972;28;20625;-68
2022/11/01 01:41:54;;;;;;;12.03;7.37;;;;;;;14.79;69.65;100167.00;5053103;28;20656;-68
2022/11/01 01:43:42;;;;;;;13.17;6.90;;;;;;;14.79;69.67;100165.13;5053710;28;20669;-67
2022/11/01 01:46:09;;;;;;;14.23;8.00;;;;;;;14.79;69.81;100172.34;5053789;28;20219;-67
2022/11/01 01:48:38;;;;;;;12.03;7.40;;;;;;;14.79;69.44;100173.16;5053982;28;20279;-67
2022/11/01 01:51:09;;;;;;;15.10;7.37;;;;;;;14.77;69.76;100164.53;5054005;28;20205;-68
2022/11/01 01:53:38;;;;;;;16.00;7.60;;;;;;;14.77;69.47;100171.72;5054103;28;20184;-67
2022/11/01 01:56:10;;;;;;;10.10;7.57;;;;;;;14.76;69.66;100165.56;5053896;28;20192;-67
2022/11/01 01:58:40;;;;;;;16.43;8.00;;;;;;;14.72;69.62;100161.66;5053393;28;20213;-67
2022/11/01 02:01:07;;;;;;;11.90;7.87;;;;;;;14.74;69.67;100170.28;5054940;28;20188;-67
2022/11/01 02:03:37;;;;;;;10.17;6.87;;;;;;;14.72;69.94;100177.69;5053360;28;20656;-67
2022/11/01 02:06:09;;;;;;;8.60;6.43;;;;;;;14.73;69.66;100178.50;5053872;28;20627;-68
2022/11/01 02:08:38;;;;;;;15.03;6.90;;;;;;;14.73;69.79;100175.84;5053783;28;20247;-68
2022/11/01 02:11:08;;;;;;;12.93;6.73;;;;;;;14.71;69.92;100181.38;5053335;28;20254;-67
2022/11/01 02:13:35;;;;;;;13.43;7.60;;;;;;;14.71;69.84;100181.38;5064808;28;20188;-67
2022/11/01 02:16:20;;;;;;;12.83;8.23;;;;;;;14.69;69.85;100185.28;5066867;28;20189;-67
2022/11/01 02:18:49;;;;;;;16.93;8.03;;;;;;;14.67;70.27;100185.50;5053041;28;20574;-68
2022/11/01 02:21:31;;;;;;;18.80;7.57;;;;;;;14.63;70.34;100188.81;5053063;28;20702;-68
2022/11/01 02:24:24;;;;;;;12.47;7.53;;;;;;;14.61;70.49;100194.34;5053554;28;20238;-68
2022/11/01 02:27:13;;;;;;;9.63;6.87;;;;;;;14.60;70.94;100189.22;5053606;28;20207;-68
2022/11/01 02:30:11;;;;;;;15.40;7.33;;;;;;;14.53;71.23;100183.84;5052877;28;20184;-68
2022/11/01 02:32:54;;;;;;;9.47;7.90;;;;;;;14.52;71.26;100192.91;5049431;28;20192;-68
2022/11/01 02:35:27;;;;;;;10.37;7.17;;;;;;;14.52;70.65;100197.41;5053751;28;20189;-68
2022/11/01 02:38:01;;;;;;;14.07;7.67;;;;;;;14.49;70.26;100204.00;5052730;28;20637;-68
2022/11/01 02:40:35;;;;;;;9.37;7.40;;;;;;;14.48;70.38;100197.03;5053293;28;20266;-68
2022/11/01 02:43:07;;;;;;;13.90;7.93;;;;;;;14.45;70.39;100210.78;5053689;28;20187;-68
2022/11/01 02:45:37;;;;;;;18.43;7.53;;;;;;;14.43;70.87;100204.84;5052673;28;20238;-68
2022/11/01 02:48:06;;;;;;;12.13;7.80;;;;;;;14.42;70.62;100208.50;5053482;28;20212;-68
2022/11/01 02:50:38;;;;;;;9.03;7.60;;;;;;;14.40;70.84;100205.22;5053720;28;20200;-68
2022/11/01 02:53:05;;;;;;;14.27;7.90;;;;;;;14.39;71.57;100205.44;5053163;28;20188;-68
2022/11/01 02:55:34;;;;;;;8.60;6.80;;;;;;;14.34;71.37;100200.69;5053304;28;20192;-67
2022/11/01 02:58:05;;;;;;;14.10;8.10;;;;;;;14.31;71.96;100205.63;5053421;28;20192;-67
2022/11/01 03:00:34;;;;;;;11.00;7.07;;;;;;;14.28;72.41;100196.16;5052931;28;20645;-68
2022/11/01 03:03:09;;;;;;;16.27;7.20;;;;;;;14.11;72.20;100181.50;5052217;28;20726;-68
2022/11/01 03:05:48;;;;;;;8.17;6.63;;;;;;;14.25;72.45;100207.25;5052588;28;20238;-68
2022/11/01 03:08:18;;;;;;;15.97;7.37;;;;;;;14.23;72.48;100203.97;5052207;28;20185;-68
2022/11/01 03:10:52;;;;;;;17.73;7.77;;;;;;;14.20;72.37;100211.50;5052855;28;20189;-68
2022/11/01 03:13:31;;;;;;;25.37;7.17;;;;;;;14.19;72.77;100205.38;5061960;28;20184;-68
2022/11/01 03:16:07;;;;;;;11.53;6.60;;;;;;;14.17;72.51;100212.75;5065573;28;20181;-68
2022/11/01 03:18:43;;;;;;;13.87;6.43;;;;;;;14.16;72.81;100205.75;5052480;28;20184;-68
2022/11/01 03:21:16;;;;;;;10.80;7.20;;;;;;;14.15;72.44;100206.78;5052976;28;20258;-68
2022/11/01 03:23:47;;;;;;;10.97;6.00;;;;;;;14.12;72.84;100199.16;5052714;28;20227;-67
2022/11/01 03:26:20;;;;;;;8.63;6.40;;;;;;;14.13;72.45;100202.69;5053197;28;20243;-67
2022/11/01 03:28:51;;;;;;;10.10;6.33;;;;;;;14.11;72.61;100207.38;5052098;28;20675;-67
2022/11/01 03:31:23;;;;;;;15.97;6.30;;;;;;;14.04;73.32;100210.03;5052270;28;20193;-67
2022/11/01 03:33:56;;;;;;;13.77;6.47;;;;;;;13.90;72.91;100200.34;5052184;28;20193;-68
2022/11/01 03:36:27;;;;;;;10.17;6.60;;;;;;;13.90;73.29;100215.53;5053341;28;20246;-68
2022/11/01 03:38:58;;;;;;;18.00;7.37;;;;;;;13.90;73.74;100213.69;5052159;28;20216;-68
2022/11/01 03:41:27;;;;;;;7.70;6.00;;;;;;;13.91;73.67;100219.84;5051795;28;20246;-67
2022/11/01 03:43:55;;;;;;;12.33;6.97;;;;;;;13.83;73.69;100212.00;5052167;28;20197;-67
2022/11/01 03:46:21;;;;;;;14.23;7.17;;;;;;;13.73;73.79;100220.38;5052105;28;20193;-67
2022/11/01 03:48:48;;;;;;;12.23;7.50;;;;;;;13.67;74.32;100218.50;5051668;28;20235;-68
2022/11/01 03:51:16;;;;;;;12.47;6.73;;;;;;;13.66;74.26;100216.88;5051667;28;20619;-67
2022/11/01 03:53:43;;;;;;;9.97;6.90;;;;;;;13.68;74.34;100220.16;5051598;28;20238;-68
2022/11/01 03:56:09;;;;;;;8.73;7.87;;;;;;;13.69;73.93;100221.00;5052268;28;20250;-68
2022/11/01 03:58:44;;;;;;;12.27;7.70;;;;;;;13.67;74.12;100223.00;5051980;28;20197;-68
2022/11/01 04:01:12;;;;;;;16.43;8.23;;;;;;;13.64;74.33;100218.09;5051940;28;20254;-68
2022/11/01 04:03:39;;;;;;;18.50;7.60;;;;;;;13.65;73.89;100222.41;5052959;28;20242;-68
2022/11/01 04:06:07;;;;;;;12.73;7.93;;;;;;;13.61;73.87;100213.97;5055538;28;20258;-68
2022/11/01 04:08:36;;;;;;;12.63;6.70;;;;;;;13.59;73.97;100216.00;5055467;28;20192;-69
2022/11/01 04:11:03;;;;;;;11.70;8.13;;;;;;;13.55;74.22;100214.75;5055657;28;20280;-68
2022/11/01 04:13:30;;;;;;;15.97;7.23;;;;;;;13.56;74.44;100227.06;5066671;28;20199;-68
2022/11/01 04:21:26;;;;;;;9.80;7.93;;;;;;;13.54;74.62;100217.63;5056261;28;20234;-68
2022/11/01 04:23:54;;;;;;;13.17;6.87;;;;;;;13.52;74.39;100214.34;5055202;28;20723;-68
2022/11/01 04:26:22;;;;;;;19.70;7.70;;;;;;;13.52;74.39;100214.34;5055557;28;20246;-67
2022/11/01 04:28:56;;;;;;;17.30;7.50;;;;;;;13.55;74.48;100217.41;5055554;28;20184;-68
2022/11/01 04:31:24;;;;;;;13.20;7.17;;;;;;;13.55;74.40;100228.09;5055207;28;20271;-67
2022/11/01 04:33:50;;;;;;;19.20;7.87;;;;;;;13.53;74.45;100222.16;5056128;28;20230;-68
2022/11/01 04:36:17;;;;;;;19.63;7.30;;;;;;;13.56;74.42;100227.06;5055690;28;20199;-68
2022/11/01 04:38:44;;;;;;;11.30;7.40;;;;;;;13.56;74.48;100226.25;5055293;28;20192;-68
2022/11/01 04:41:12;;;;;;;9.33;6.00;;;;;;;13.55;74.69;100220.09;5055191;28;20604;-67
2022/11/01 04:43:38;;;;;;;25.07;7.27;;;;;;;13.54;74.52;100223.78;5055219;28;20193;-68
2022/11/01 04:46:05;;;;;;;20.07;7.13;;;;;;;13.55;74.54;100225.44;5055137;28;20280;-68
2022/11/01 04:48:32;;;;;;;15.23;7.27;;;;;;;13.56;74.68;100235.06;5054853;28;20193;-68
2022/11/01 04:51:01;;;;;;;14.30;6.97;;;;;;;13.55;74.94;100230.75;5055109;28;20209;-68
2022/11/01 04:53:28;;;;;;;9.53;6.30;;;;;;;13.56;74.60;100235.06;5054801;28;20664;-68
2022/11/01 04:55:55;;;;;;;10.47;6.10;;;;;;;13.55;74.89;100235.28;5054987;28;20196;-68
2022/11/01 04:58:23;;;;;;;20.97;6.33;;;;;;;13.57;74.60;100236.75;5055537;28;20250;-68
2022/11/01 05:00:50;;;;;;;13.23;6.17;;;;;;;13.55;74.75;100229.94;5054719;28;20220;-68
2022/11/01 05:03:16;;;;;;;22.57;6.90;;;;;;;13.55;74.79;100236.09;5055199;28;20192;-67
2022/11/01 05:05:43;;;;;;;25.60;7.57;;;;;;;13.54;74.31;100245.13;5054454;28;20189;-68
2022/11/01 05:08:12;;;;;;;19.17;7.40;;;;;;;13.55;74.42;100244.13;5054484;28;20655;-67
2022/11/01 05:10:41;;;;;;;17.33;7.13;;;;;;;13.58;74.48;100243.72;5054642;28;20263;-67
2022/11/01 05:13:08;;;;;;;21.53;7.43;;;;;;;13.61;74.38;100246.00;5062625;28;20281;-67
2022/11/01 05:15:36;;;;;;;26.57;7.90;;;;;;;13.60;74.20;100249.69;5069712;28;20193;-68
2022/11/01 05:18:04;;;;;;;27.07;8.70;;;;;;;13.66;74.42;100253.41;5054302;28;20233;-67
2022/11/01 05:20:31;;;;;;;26.33;7.57;;;;;;;13.73;73.88;100249.75;5054031;28;20777;-68
2022/11/01 05:22:59;;;;;;;33.20;8.43;;;;;;;13.77;74.01;100239.50;5054267;28;20278;-67
2022/11/01 05:25:26;;;;;;;23.87;7.90;;;;;;;13.91;73.90;100250.06;5053864;28;20193;-68
2022/11/01 05:27:58;;;;;;;25.57;7.93;;;;;;;14.01;73.00;100252.38;5053815;28;20657;-67
2022/11/01 05:30:25;;;;;;;28.37;7.97;;;;;;;14.17;73.37;100255.50;5053678;28;20739;-67
2022/11/01 05:32:57;;;;;;;28.17;8.17;;;;;;;14.35;72.93;100253.13;5053852;28;20664;-68
2022/11/01 05:35:24;;;;;;;30.70;8.00;;;;;;;14.57;72.37;100270.66;5054263;28;20193;-67
2022/11/01 05:37:51;;;;;;;23.67;7.70;;;;;;;14.77;71.59;100271.50;5053900;28;20188;-67
2022/11/01 05:40:17;;;;;;;18.23;7.90;;;;;;;14.98;70.60;100265.97;5053550;28;20254;-67
2022/11/01 05:42:44;;;;;;;34.07;7.83;;;;;;;15.16;69.68;100265.34;5054410;28;20197;-67
2022/11/01 05:45:11;;;;;;;24.30;7.53;;;;;;;15.29;68.93;100273.38;5053787;28;20200;-67
2022/11/01 05:47:39;;;;;;;26.20;7.83;;;;;;;15.37;68.44;100284.75;5053492;28;20730;-67
2022/11/01 05:50:08;;;;;;;13.17;7.40;;;;;;;15.42;67.68;100284.09;5053704;28;20250;-67
2022/11/01 05:52:35;;;;;;;8.03;6.60;;;;;;;15.44;67.26;100290.88;5053691;28;20224;-67
2022/11/01 05:55:01;;;;;;;15.07;7.00;;;;;;;15.48;67.11;100285.97;5053260;28;20197;-67
2022/11/01 05:57:28;;;;;;;12.37;7.27;;;;;;;15.65;68.09;100287.97;5053541;28;20251;-67
2022/11/01 05:59:55;;;;;;;19.50;8.37;;;;;;;15.98;66.19;100285.22;5053896;28;20224;-65
2022/11/01 06:02:22;;;;;;;23.33;6.93;;;;;;;16.48;67.95;100292.44;5053830;28;20193;-59
2022/11/01 06:04:48;;;;;;;17.77;7.80;;;;;;;17.19;63.26;100303.75;5053101;28;20526;-60
2022/11/01 06:07:17;;;;;;;23.17;7.70;;;;;;;17.88;64.30;100299.00;5053530;28;20547;-59
2022/11/01 06:09:43;;;;;;;11.27;7.70;;;;;;;18.42;60.74;100301.66;5053134;28;20200;-59
2022/11/01 06:12:10;;;;;;;22.10;7.27;;;;;;;18.81;60.97;100295.72;5053499;28;20225;-60
2022/11/01 06:14:37;;;;;;;25.30;8.43;;;;;;;19.22;54.74;100317.25;5072961;28;20196;-59
2022/11/01 06:17:03;;;;;;;20.83;8.43;;;;;;;19.66;54.37;100322.13;5057154;28;20575;-62
2022/11/01 06:19:30;;;;;;;24.70;6.60;;;;;;;19.90;52.11;100318.38;5053107;28;20296;-62
2022/11/01 06:21:58;;;;;;;19.40;5.83;;;;;;;19.89;51.44;100316.75;5050294;28;20273;-62
2022/11/01 06:24:26;;;;;;;13.27;5.03;;;;;;;20.22;51.32;100323.16;5052627;28;20191;-62
2022/11/01 06:26:52;;;;;;;20.63;5.77;;;;;;;20.44;48.50;100323.31;5051908;28;20250;-63
2022/11/01 06:29:19;;;;;;;13.67;5.23;;;;;;;20.70;48.73;100328.16;5061114;28;20199;-63
2022/11/01 06:31:46;;;;;;;43.73;6.70;;;;;;;20.94;49.46;100316.22;5058100;28;20193;-63
2022/11/01 06:34:12;;;;;;;25.63;7.00;;;;;;;21.28;47.74;100328.72;5052557;28;20673;-63
2022/11/01 06:36:39;;;;;;;14.03;5.47;;;;;;;21.45;47.69;100329.53;5052575;28;20189;-61
2022/11/01 06:39:06;;;;;;;13.20;5.10;;;;;;;21.68;46.39;100323.13;5060110;28;20192;-62
2022/11/01 06:41:34;;;;;;;19.50;5.53;;;;;;;21.89;46.05;100319.69;5051897;28;20498;-63
2022/11/01 06:44:01;;;;;;;15.93;6.20;;;;;;;22.02;44.18;100322.84;5050486;28;20280;-64
2022/11/01 06:46:27;;;;;;;13.80;6.23;;;;;;;22.08;44.90;100312.88;5050286;28;20196;-63
2022/11/01 06:48:54;;;;;;;19.07;6.23;;;;;;;22.18;44.02;100316.56;5050210;28;20626;-63
2022/11/01 06:51:21;;;;;;;15.17;5.90;;;;;;;22.26;44.61;100324.22;5050265;28;20196;-62
2022/11/01 06:53:47;;;;;;;14.20;6.27;;;;;;;22.55;43.96;100325.72;5050275;28;20258;-63
2022/11/01 06:56:14;;;;;;;20.67;6.07;;;;;;;22.73;42.88;100322.66;5050209;28;20258;-65
2022/11/01 06:58:42;;;;;;;11.50;5.93;;;;;;;22.91;41.78;100325.00;5050311;28;20247;-64
2022/11/01 07:01:09;;;;;;;15.20;5.90;;;;;;;23.05;42.65;100320.00;5049758;28;20844;-64
2022/11/01 07:03:35;;;;;;;28.70;5.90;;;;;;;23.20;42.67;100312.03;5049764;28;20638;-64
2022/11/01 07:06:02;;;;;;;13.53;5.50;;;;;;;23.42;41.75;100313.59;5050187;28;20201;-64
2022/11/01 07:08:29;;;;;;;17.27;5.67;;;;;;;23.51;40.31;100308.47;5051619;28;20201;-63
2022/11/01 07:10:56;;;;;;;16.30;5.50;;;;;;;23.26;40.43;100305.56;5052266;28;20192;-63
2022/11/01 07:13:22;;;;;;;6.73;4.90;;;;;;;22.78;41.89;100309.16;5061710;28;20192;-63
2022/11/01 07:15:50;;;;;;;15.03;5.77;;;;;;;22.92;42.66;100305.00;5066574;28;20189;-63
2022/11/01 07:18:18;;;;;;;15.60;5.10;;;;;;;23.11;40.91;100305.44;5052045;28;20687;-64
2022/11/01 07:20:45;;;;;;;18.87;7.70;;;;;;;23.35;41.29;100310.28;5052426;28;20224;-63
2022/11/01 07:23:15;;;;;;;11.13;5.27;;;;;;;23.67;41.20;100308.34;5052094;28;20197;-62
2022/11/01 07:25:42;;;;;;;33.33;6.63;;;;;;;23.73;39.79;100311.91;5052610;28;20201;-63
2022/11/01 07:28:09;;;;;;;14.97;5.90;;;;;;;23.79;41.25;100303.53;5053946;28;20201;-62
2022/11/01 07:30:36;;;;;;;14.70;5.63;;;;;;;24.19;40.08;100309.22;5063481;28;20435;-66
2022/11/01 07:33:04;;;;;;;26.80;6.17;;;;;;;24.76;39.84;100307.28;5052975;28;20190;-62
2022/11/01 07:35:31;;;;;;;25.27;5.37;;;;;;;25.24;39.03;100307.84;5071732;28;20199;-64
2022/11/01 07:37:59;;;;;;;12.43;4.50;;;;;;;25.50;36.05;100317.66;5071204;28;20284;-65
2022/11/01 07:40:27;;;;;;;16.50;4.90;;;;;;;25.29;37.51;100310.59;5072031;28;20222;-62
2022/11/01 07:42:56;;;;;;;20.30;4.63;;;;;;;25.55;38.24;100310.31;5071158;28;20195;-62
2022/11/01 07:45:24;;;;;;;12.47;4.27;;;;;;;25.81;37.46;100287.44;5071337;28;20723;-61
2022/11/01 07:47:51;;;;;;;11.23;4.30;;;;;;;25.69;36.50;100310.59;5072009;28;20225;-61
2022/11/01 07:50:20;;;;;;;12.00;4.93;;;;;;;25.98;36.03;100309.75;5072555;28;20233;-62
2022/11/01 07:52:46;;;;;;;8.63;4.63;;;;;;;25.90;35.38;100310.28;5071366;28;20188;-63
2022/11/01 07:55:13;;;;;;;14.53;4.40;;;;;;;26.03;35.10;100317.06;5072214;28;20192;-61
2022/11/01 07:57:40;;;;;;;16.93;4.23;;;;;;;26.25;35.12;100303.94;5056053;28;20196;-61
2022/11/01 08:00:09;;;;;;;10.43;4.23;;;;;;;26.49;34.89;100302.97;5051499;28;20274;-61
2022/11/01 08:02:36;;;;;;;10.40;4.30;;;;;;;26.78;34.29;100297.69;5051453;28;20235;-63
2022/11/01 08:05:02;;;;;;;10.80;3.87;;;;;;;26.97;33.44;100295.91;5052937;28;20197;-63
2022/11/01 08:07:30;;;;;;;29.83;4.70;;;;;;;26.89;33.41;100299.22;5053962;28;20200;-62
2022/11/01 08:09:57;;;;;;;13.27;3.60;;;;;;;26.95;33.42;100292.66;5056646;28;20199;-62
2022/11/01 08:12:24;;;;;;;12.83;4.10;;;;;;;27.13;33.44;100289.25;5070116;28;20227;-64
2022/11/01 08:14:50;;;;;;;7.90;3.70;;;;;;;27.00;33.15;100278.97;5051698;28;20197;-64
2022/11/01 08:17:17;;;;;;;6.00;4.13;;;;;;;26.93;32.79;100292.94;5068766;28;20196;-65
2022/11/01 08:19:44;;;;;;;16.47;4.83;;;;;;;26.64;32.79;100291.22;5071539;28;20261;-64
2022/11/01 08:22:10;;;;;;;13.20;3.97;;;;;;;26.17;33.47;100290.88;5071620;28;20254;-65
2022/11/01 08:24:38;;;;;;;24.77;5.03;;;;;;;25.85;34.56;100282.25;5054187;28;20200;-65
2022/11/01 08:27:05;;;;;;;14.40;4.80;;;;;;;25.74;34.92;100276.00;5051614;28;20196;-65
2022/11/01 08:29:32;;;;;;;29.10;5.73;;;;;;;25.72;34.97;100275.44;5061598;28;20192;-63
2022/11/01 08:31:58;;;;;;;13.93;4.40;;;;;;;25.51;35.23;100276.59;5053137;28;20602;-64
2022/11/01 08:34:25;;;;;;;16.27;4.73;;;;;;;25.34;35.75;100269.78;5051012;28;20200;-66
2022/11/01 08:36:52;;;;;;;11.40;3.83;;;;;;;25.40;36.13;100266.00;5059445;28;20243;-62
2022/11/01 08:39:18;;;;;;;11.27;4.17;;;;;;;25.58;35.12;100270.84;5058631;28;20246;-63
2022/11/01 08:41:49;;;;;;;12.63;4.13;;;;;;;25.87;35.47;100264.53;5071133;28;20219;-64
2022/11/01 08:44:18;;;;;;;8.37;4.63;;;;;;;26.00;34.76;100268.63;5058519;28;20250;-63
2022/11/01 08:46:45;;;;;;;7.83;4.17;;;;;;;25.99;34.34;100277.84;5051337;28;20196;-65
2022/11/01 08:49:13;;;;;;;12.33;4.57;;;;;;;25.65;34.79;100265.94;5051526;28;20278;-65
2022/11/01 08:51:40;;;;;;;10.67;4.33;;;;;;;25.49;36.10;100265.19;5054558;28;20750;-63
2022/11/01 08:54:07;;;;;;;6.17;3.70;;;;;;;25.77;35.34;100263.75;5063480;28;20188;-63
2022/11/01 08:56:34;;;;;;;7.10;3.70;;;;;;;26.10;35.51;100257.69;5064775;28;20279;-65
2022/11/01 08:59:02;;;;;;;15.67;4.57;;;;;;;26.37;34.76;100264.34;5074996;28;20200;-67
2022/11/01 09:01:29;;;;;;;10.53;4.33;;;;;;;26.53;33.66;100256.91;5058875;28;20274;-66
2022/11/01 09:03:56;;;;;;;8.93;4.13;;;;;;;26.33;33.67;100257.03;5054795;28;20227;-65
2022/11/01 09:06:24;;;;;;;11.43;4.13;;;;;;;26.07;34.72;100259.06;5054623;28;20189;-65
2022/11/01 09:08:52;;;;;;;12.40;4.03;;;;;;;26.25;34.34;100252.16;5055518;28;20246;-65
2022/11/01 09:11:19;;;;;;;31.73;5.47;;;;;;;26.41;34.56;100246.34;5055308;28;20315;-65
2022/11/01 09:13:45;;;;;;;11.97;4.70;;;;;;;26.60;34.18;100250.09;5066779;28;20613;-65
2022/11/01 09:16:13;;;;;;;14.13;5.00;;;;;;;26.79;33.56;100244.78;5066085;28;20265;-65
2022/11/01 09:18:40;;;;;;;13.60;4.63;;;;;;;26.56;33.15;100243.53;5054609;28;20196;-64
2022/11/01 09:21:07;;;;;;;12.30;4.40;;;;;;;26.66;33.87;100245.44;5054045;28;20224;-65
2022/11/01 09:23:34;;;;;;;10.90;4.63;;;;;;;26.71;33.53;100242.66;5053947;28;20201;-64
2022/11/01 09:26:02;;;;;;;11.52;4.85;;;;;;;26.97;33.58;100239.47;5053491;28;20431;-63
2022/11/01 09:28:29;;;;;;;11.87;4.70;;;;;;;27.34;32.78;100236.16;5055623;28;20589;-63
2022/11/01 09:30:56;;;;;;;17.10;5.30;;;;;;;27.56;32.23;100233.75;5074207;28;20200;-61
2022/11/01 09:33:25;;;;;;;13.40;4.70;;;;;;;27.41;31.73;100229.28;5073624;28;20321;-61
2022/11/01 09:35:53;;;;;;;16.90;5.43;;;;;;;27.34;33.46;100220.59;5073927;28;20296;-61
2022/11/01 09:38:19;;;;;;;10.07;4.87;;;;;;;27.47;32.91;100222.66;5072730;28;20286;-61
2022/11/01 09:40:56;;;;;;;8.53;4.73;;;;;;;27.69;32.07;100216.69;5073638;28;20224;-62
2022/11/01 09:43:25;;;;;;;10.97;3.90;;;;;;;27.82;32.95;100214.09;5073981;28;20194;-62
2022/11/01 09:45:57;;;;;;;8.30;4.77;;;;;;;27.80;31.58;100219.00;5072336;28;20257;-63
2022/11/01 09:48:27;;;;;;;11.93;5.07;;;;;;;27.62;31.82;100211.56;5073610;28;20249;-63
2022/11/01 09:50:54;;;;;;;14.07;4.67;;;;;;;27.60;33.10;100202.06;5073529;28;20196;-62
2022/11/01 09:53:23;;;;;;;8.27;4.20;;;;;;;27.75;32.94;100208.16;5073767;28;20204;-63
2022/11/01 09:55:55;;;;;;;15.03;5.53;;;;;;;27.72;31.53;100200.53;5073487;28;20192;-68
2022/11/01 09:58:34;;;;;;;14.00;5.03;;;;;;;27.54;31.58;100203.19;5073671;28;20192;-66
2022/11/01 10:01:15;;;;;;;63.20;7.43;;;;;;;27.16;32.39;100195.91;5072640;28;20772;-67
2022/11/01 10:03:56;;;;;;;10.73;4.60;;;;;;;27.28;32.26;100190.94;5073554;28;20189;-67
2022/11/01 10:06:27;;;;;;;10.63;4.77;;;;;;;27.38;31.99;100188.09;5073724;28;20640;-70
2022/11/01 10:09:02;;;;;;;44.87;6.53;;;;;;;27.49;32.97;100189.59;5073810;28;20188;-65
2022/11/01 10:12:02;;;;;;;20.10;5.93;;;;;;;27.49;32.55;100176.78;5073454;28;20234;-64
2022/11/01 10:14:54;;;;;;;14.77;6.13;;;;;;;27.69;32.69;100181.19;5054537;28;20262;-66
2022/11/01 10:17:33;;;;;;;15.27;7.20;;;;;;;27.80;31.96;100174.47;5055030;28;20180;-70
2022/11/01 10:20:03;;;;;;;26.70;7.33;;;;;;;27.79;31.65;100172.88;5052371;28;20609;-74
2022/11/01 10:22:33;;;;;;;19.87;7.53;;;;;;;27.59;30.95;100154.81;5057502;28;20254;-70
2022/11/01 10:25:04;;;;;;;17.50;6.90;;;;;;;27.55;31.33;100158.41;5053256;28;20631;-71
2022/11/01 10:27:40;;;;;;;15.93;7.30;;;;;;;27.33;31.85;100160.84;5052775;28;20314;-71
2022/11/01 10:30:12;;;;;;;20.73;7.47;;;;;;;27.31;32.40;100163.06;5050062;28;20392;-71
2022/11/01 10:32:46;;;;;;;22.17;8.80;;;;;;;27.39;32.16;100156.94;5048731;28;20608;-71
2022/11/01 10:35:17;;;;;;;25.33;8.93;;;;;;;27.52;31.81;100161.75;5048681;28;20644;-71
2022/11/01 10:37:49;;;;;;;23.00;7.17;;;;;;;27.36;31.84;100135.72;5050681;28;20262;-71
2022/11/01 10:40:23;;;;;;;15.43;5.27;;;;;;;27.58;32.12;100155.94;5050872;28;20192;-74
2022/11/01 10:42:50;;;;;;;18.40;6.20;;;;;;;27.66;31.29;100147.09;5050704;28;20189;-71
2022/11/01 10:45:19;;;;;;;14.17;4.70;;;;;;;27.70;31.31;100147.31;5050928;28;20695;-70
2022/11/01 10:47:56;;;;;;;12.27;4.70;;;;;;;27.79;31.24;100138.19;5052885;28;20203;-71
2022/11/01 10:50:27;;;;;;;12.10;4.50;;;;;;;27.69;31.27;100142.97;5053025;28;20254;-71
2022/11/01 10:52:59;;;;;;;10.87;4.63;;;;;;;27.60;31.17;100136.53;5053655;28;20189;-71
2022/11/01 10:55:34;;;;;;;12.23;4.37;;;;;;;27.78;31.23;100124.81;5052256;28;20238;-71
2022/11/01 10:58:04;;;;;;;9.93;4.87;;;;;;;27.89;31.09;100124.41;5052398;28;20230;-71
2022/11/01 11:00:34;;;;;;;9.93;4.33;;;;;;;27.87;31.26;100120.34;5052711;28;20193;-72
2022/11/01 11:03:12;;;;;;;8.87;4.20;;;;;;;27.85;31.47;100117.91;5052481;28;20196;-71
2022/11/01 11:05:40;;;;;;;13.80;4.30;;;;;;;27.87;31.23;100114.88;5052249;28;20213;-71
2022/11/01 11:08:15;;;;;;;12.63;4.50;;;;;;;27.82;31.35;100106.78;5052604;28;20197;-71
2022/11/01 11:10:44;;;;;;;13.20;4.60;;;;;;;27.88;31.19;100111.03;5052183;28;20204;-71
2022/11/01 11:13:15;;;;;;;9.83;5.30;;;;;;;27.86;30.86;100105.09;5060278;28;20243;-71
2022/11/01 11:15:45;;;;;;;11.80;4.53;;;;;;;27.76;31.06;100095.06;5060099;28;20249;-75
2022/11/01 11:18:23;;;;;;;10.93;5.90;;;;;;;27.78;31.33;100094.78;5071830;28;20286;-72
2022/11/01 11:20:53;;;;;;;14.67;4.30;;;;;;;27.73;31.12;100092.13;5072410;28;20184;-71
2022/11/01 11:23:21;;;;;;;9.53;4.20;;;;;;;27.76;31.29;100088.81;5072811;28;20196;-72
2022/11/01 11:25:50;;;;;;;12.47;4.57;;;;;;;27.50;31.51;100073.84;5071993;28;20223;-71
2022/11/01 11:28:26;;;;;;;10.03;4.27;;;;;;;27.62;31.39;100085.16;5072294;28;20231;-73
2022/11/01 11:30:53;;;;;;;16.80;4.97;;;;;;;27.52;31.51;100074.38;5051733;28;20195;-73
2022/11/01 11:33:22;;;;;;;12.53;4.07;;;;;;;27.42;31.56;100079.97;5052027;28;20227;-72